Noojee Slivar, Victoria

11:23 AM EST on July 23, 2014 (GMT +1000)
Rokeby (IVICTORI254) Elev 614 ft | 38.07 °S, 145.95 °E | Change Station

Current weather conditions updated 14 minutes ago

Clear
Clear
46.4 °F
Feels Like 45 °F
N
4.0
Wind Variable Wind from SE
Gusts 5.0 mph

Today is forecast to be Warmer than yesterday.

Today
High -- | Low -- °F
--% Chance of Precip.
Yesterday
High -- | Low -- °F
Precip. -- in
7:24 AM 5:21 PM
Waning Crescent, 14% visible
Pressure 30.21 in
Visibility 6.2 miles
Clouds
Windchill 45 °F
Dew Point 42 °F
Humidity 84%
Rainfall 0.00 in
Snow Depth Not available.
UV Not available.
Pollen Not available.
Air Quality Not available.
Flu Activity Not available.
METAR YMEN 230100Z AUTO 06004KT 9999 // NCD 10/09 Q1023

More Conditions Fewer Conditions

Pressure 30.21 in
Visibility 6.2 miles
Clouds
Windchill 45 °F
Dew Point 42 °F
Humidity 84%
Rainfall 0.00 in
Snow Depth Not available.
UV Not available.
Pollen Not available.
Air Quality Not available.
Flu Activity Not available.
METAR YMEN 230100Z AUTO 06004KT 9999 // NCD 10/09 Q1023

More Conditions Fewer Conditions

10-Day Weather Forecast

Almanac

Astronomy

Jul. 23, 2014 Rise Set
Actual Time 7:24 AM EST 5:21 PM EST
Civil Twilight 6:55 AM EST 5:49 PM EST
Nautical Twilight 6:23 AM EST 6:21 PM EST
Astronomical Twilight 5:52 AM EST 6:53 PM EST
Moon 4:04 AM EST 2:21 PM EST
Length of Visible Light 10h 53m
Length of Day
9h 56m
Tomorrow will be 1m 30s longer.
Waning Crescent, 14% of the Moon is Illuminated
Jul 22
Waning Crescent
Jul 26
New
Aug 3
First Quarter
Aug 10
Full
Aug 17
Last Quarter

Yesterday's Extremes

Country Highs Country Lows

Community

WunderPhotos

Upload Photos

1,736,423 photos uploaded!

Nearby

Snow Depth

Not available.

Earthquake Activity

City Distance Mag. Time & Date
No recent earthquake activity has been reported nearby.
Minimum magnitude displayed is 2.5.

Coastal Water Temperatures

Place Temperature
No Stations Reporting

Nearby Weather Stations

Station Location Temp. Windchill Dew Point Humidity Wind Precip. Elev Updated Type
Rokeby, Rokeby 46.4 °F 45 °F 42 °F 84% SE  at  4.0 mph 0.00 in / hr 614 ft 11:09 AM EST Normal
Labertouche, Labertouche 46.9 °F 47 °F 46 °F 96% WSW  at  3.0 mph 0.01 in / hr 334 ft 11:20 AM EST Normal
Lillico, Warragul 49.1 °F 46 °F 44 °F 82% East  at  8.1 mph 0.00 in / hr 558 ft 11:23 AM EST Rapid Fire
Drouin (VK3GY), Drouin 47.8 °F 48 °F 42 °F 80% East  at  2.0 mph 0.00 in / hr 476 ft 11:22 AM EST Normal
Warragul Victoria, Warragul 48.4 °F 48 °F 42 °F 77% North  at  1.0 mph 0.00 in / hr 407 ft 11:14 AM EST Normal
Britannia Creek, Wesburn 49.1 °F 49 °F 44 °F 83% North  at  0.0 mph 0.00 in / hr 643 ft 11:23 AM EST Normal
Gembrook, Gembrook 45.4 °F 45 °F 31 °F 57% West  at  0.0 mph 0.00 in / hr 915 ft 11:21 AM EST Normal

Show More Stations Show Fewer Stations